Terminal Aerodrome Forecast
Issued by NWS Wilmington, NC

Home | Current Version | Previous Version | Text Only | Print | Product List | Glossary On
Versions: 1 2 3 4 5 6 7 8 9 10 11 12 13 14 15 16 17 18 19 20 21 22 23 24 25 26 27
000
FTUS42 KILM 041700
TAFFLO
TAF
KFLO 041721Z 0418/0518 22012G23KT P6SM SCT025 BKN060
     FM050000 22011KT P6SM BKN100
     FM050600 22008KT 2SM BR BKN003
     FM051500 24011G18KT 6SM BR VCSH OVC007=

USA.gov is the U.S. government's official web portal to all federal, state and local government web resources and services.